createdAt,value
2023-03-02T06:03:06.912Z,25.14
2023-03-02T06:04:07.881Z,25.09
2023-03-02T06:05:06.914Z,25.16
2023-03-02T06:06:07.959Z,25.14
2023-03-02T06:07:06.960Z,25.13
2023-03-02T06:08:08.007Z,25.10
2023-03-02T06:09:08.007Z,25.17
2023-03-02T06:10:08.020Z,25.17
2023-03-02T06:11:08.121Z,25.16
2023-03-02T06:12:07.105Z,25.12
2023-03-02T06:13:07.159Z,25.12
2023-03-02T06:14:08.202Z,25.03
2023-03-02T06:15:08.261Z,25.03
2023-03-02T06:16:08.901Z,25.08
2023-03-02T06:17:08.301Z,25.06
2023-03-02T06:18:08.299Z,25.00
2023-03-02T06:19:08.350Z,25.05
2023-03-02T06:20:08.354Z,25.00
2023-03-02T06:21:08.358Z,24.92
2023-03-02T06:22:08.396Z,24.95
2023-03-02T06:23:07.419Z,24.90
2023-03-02T06:24:08.436Z,24.99
2023-03-02T06:25:08.461Z,25.01
2023-03-02T06:26:08.497Z,24.89
2023-03-02T06:27:08.536Z,24.89
2023-03-02T06:28:08.583Z,24.93
2023-03-02T06:29:08.619Z,24.92
2023-03-02T06:30:08.598Z,24.95
2023-03-02T06:31:08.612Z,24.92
2023-03-02T06:32:08.751Z,24.90
2023-03-02T06:33:08.684Z,24.90
2023-03-02T06:34:08.680Z,24.96
2023-03-02T06:35:08.975Z,24.93
2023-03-02T06:36:09.031Z,24.93
2023-03-02T06:37:08.738Z,25.03
2023-03-02T06:38:08.758Z,24.79
2023-03-02T06:39:08.780Z,24.86
2023-03-02T06:40:07.800Z,24.95
2023-03-02T06:41:08.815Z,24.90
2023-03-02T06:42:07.826Z,24.90
2023-03-02T06:43:07.856Z,24.90
2023-03-02T06:44:08.887Z,24.93
2023-03-02T06:45:08.908Z,24.87
2023-03-02T06:46:09.080Z,24.90
2023-03-02T06:47:08.929Z,24.85
2023-03-02T06:48:08.948Z,24.82
2023-03-02T06:49:08.985Z,24.85
2023-03-02T06:50:08.982Z,24.80
2023-03-02T06:51:08.113Z,24.74
2023-03-02T06:52:08.040Z,24.84
2023-03-02T06:53:08.062Z,24.83
2023-03-02T06:54:08.092Z,24.94
2023-03-02T06:55:09.108Z,24.77
2023-03-02T06:56:09.577Z,24.79
2023-03-02T06:57:08.129Z,24.75
2023-03-02T06:58:09.175Z,24.79
2023-03-02T06:59:09.190Z,24.76
2023-03-02T07:00:09.184Z,24.80
2023-03-02T07:01:09.705Z,24.86
2023-03-02T07:02:09.228Z,24.79
2023-03-02T07:03:09.255Z,24.80
2023-03-02T07:04:09.298Z,24.87
2023-03-02T07:05:09.273Z,24.76
2023-03-02T07:06:09.305Z,24.76
2023-03-02T07:07:09.334Z,24.85
2023-03-02T07:09:09.347Z,24.73
2023-03-02T07:10:09.429Z,24.84
2023-03-02T07:11:09.388Z,24.76
2023-03-02T07:12:09.381Z,24.73
2023-03-02T07:13:09.355Z,24.80
2023-03-02T07:14:08.423Z,24.87
2023-03-02T07:15:09.450Z,24.81
2023-03-02T07:16:09.783Z,24.77
2023-03-02T07:17:09.464Z,24.81
2023-03-02T07:18:09.474Z,24.78
2023-03-02T07:19:09.485Z,24.82
2023-03-02T07:20:09.500Z,24.82
2023-03-02T07:22:09.528Z,24.80
2023-03-02T07:26:09.579Z,24.81
2023-03-02T07:27:08.565Z,24.75
2023-03-02T07:28:09.573Z,24.78
2023-03-02T07:29:09.594Z,24.72
2023-03-02T07:30:09.594Z,24.77
2023-03-02T07:31:09.689Z,24.76
2023-03-02T07:32:12.133Z,24.79
2023-03-02T07:33:09.586Z,24.81
2023-03-02T07:34:09.616Z,24.82
2023-03-02T07:35:09.574Z,24.84
2023-03-02T07:36:08.573Z,24.77
2023-03-02T07:38:09.567Z,24.78
2023-03-02T07:39:09.617Z,24.78
2023-03-02T07:40:08.558Z,24.86
2023-03-02T07:41:09.565Z,24.80
2023-03-02T07:42:09.543Z,24.75
2023-03-02T07:43:09.528Z,24.75
2023-03-02T07:44:09.516Z,24.75
2023-03-02T07:45:09.564Z,24.77
2023-03-02T07:46:09.573Z,24.74
2023-03-02T07:47:09.492Z,24.74
2023-03-02T07:48:09.483Z,24.78
2023-03-02T07:49:08.474Z,24.75
2023-03-02T07:50:09.528Z,24.81
2023-03-02T07:51:09.535Z,24.90
2023-03-02T07:52:09.584Z,24.78
2023-03-02T07:53:09.450Z,24.78
2023-03-02T07:54:09.447Z,24.79
2023-03-02T07:55:09.643Z,24.80
2023-03-02T07:56:09.458Z,24.78
2023-03-02T07:57:09.589Z,24.78
2023-03-02T07:58:09.407Z,24.77
2023-03-02T07:59:09.406Z,24.77
2023-03-02T08:00:09.387Z,24.77
2023-03-02T08:01:09.400Z,24.84
2023-03-02T08:02:09.438Z,24.77
2023-03-02T08:03:09.428Z,24.75
2023-03-02T08:04:09.364Z,24.78
2023-03-02T08:06:08.387Z,24.80
2023-03-02T08:07:08.368Z,24.81
2023-03-02T08:08:09.343Z,24.84
2023-03-02T08:09:09.337Z,24.77
2023-03-02T08:10:08.314Z,24.70
2023-03-02T08:11:09.351Z,24.68
2023-03-02T08:12:08.316Z,24.76
2023-03-02T08:13:09.311Z,24.74
2023-03-02T08:14:08.293Z,24.77
2023-03-02T08:15:09.297Z,24.73
2023-03-02T08:16:08.381Z,24.75
2023-03-02T08:17:09.279Z,24.76
2023-03-02T08:18:09.270Z,24.71
2023-03-02T08:19:09.255Z,24.77
2023-03-02T08:20:08.260Z,24.75
2023-03-02T08:21:09.233Z,24.76
2023-03-02T08:22:08.237Z,24.83
2023-03-02T08:23:09.236Z,24.83
2023-03-02T08:24:09.278Z,24.78
2023-03-02T08:25:09.201Z,24.86
2023-03-02T08:26:11.657Z,24.78
2023-03-02T08:27:09.253Z,24.82
2023-03-02T08:28:09.194Z,24.79
2023-03-02T08:29:09.180Z,24.79
2023-03-02T08:30:08.165Z,24.80
2023-03-02T08:31:09.197Z,24.80
2023-03-02T08:32:09.343Z,24.79
2023-03-02T08:33:08.144Z,24.87
2023-03-02T08:34:09.144Z,24.84
2023-03-02T08:35:08.122Z,24.83
2023-03-02T08:36:09.195Z,24.85
2023-03-02T08:37:09.116Z,24.76
2023-03-02T08:38:08.113Z,24.73
2023-03-02T08:39:09.118Z,24.72
2023-03-02T08:40:08.101Z,24.76
2023-03-02T08:41:09.084Z,24.76
2023-03-02T08:42:08.087Z,24.69
2023-03-02T08:43:09.106Z,24.75
2023-03-02T08:44:09.093Z,24.77
2023-03-02T08:45:08.060Z,24.71
2023-03-02T08:46:09.095Z,24.83
2023-03-02T08:47:08.131Z,24.76
2023-03-02T08:48:09.030Z,24.84
2023-03-02T08:49:09.027Z,24.82
2023-03-02T08:50:09.042Z,24.84
2023-03-02T08:51:09.031Z,24.78
2023-03-02T08:52:09.112Z,24.83
2023-03-02T08:53:08.996Z,24.82
2023-03-02T08:54:08.977Z,24.84
2023-03-02T08:55:08.060Z,24.87
2023-03-02T08:56:08.961Z,24.88
2023-03-02T08:57:08.973Z,25.84
2023-03-02T08:58:08.950Z,25.88
2023-03-02T08:59:08.974Z,26.13
2023-03-02T09:00:08.936Z,26.48
2023-03-02T09:01:08.969Z,26.57
2023-03-02T09:02:07.946Z,26.72
2023-03-02T09:03:08.917Z,27.27
2023-03-02T09:04:08.972Z,27.35
2023-03-02T09:05:08.896Z,27.43
2023-03-02T09:06:08.888Z,27.52
2023-03-02T09:07:08.899Z,27.46
2023-03-02T09:08:08.864Z,27.36
2023-03-02T09:09:08.930Z,27.97
2023-03-02T09:10:08.956Z,28.20
2023-03-02T09:11:08.995Z,28.34
2023-03-02T09:12:09.058Z,28.61
2023-03-02T09:13:09.108Z,27.93
2023-03-02T09:14:09.149Z,27.97
2023-03-02T09:15:09.188Z,27.44
2023-03-02T09:16:09.246Z,27.52
2023-03-02T09:17:08.188Z,27.08
2023-03-02T09:18:08.227Z,27.51
2023-03-02T09:19:09.269Z,27.34
2023-03-02T09:20:08.259Z,27.60
2023-03-02T09:21:09.300Z,27.38
2023-03-02T09:22:09.335Z,27.38
2023-03-02T09:23:09.383Z,27.02
2023-03-02T09:24:09.422Z,27.42
2023-03-02T09:25:09.467Z,27.29
2023-03-02T09:26:09.527Z,27.39
2023-03-02T09:27:09.608Z,27.22
2023-03-02T09:28:08.608Z,26.97
2023-03-02T09:29:09.681Z,26.74
2023-03-02T09:30:09.736Z,27.09
2023-03-02T09:31:09.810Z,26.43
2023-03-02T09:32:09.907Z,26.85
2023-03-02T09:33:09.900Z,26.78
2023-03-02T09:34:08.938Z,25.82
2023-03-02T09:35:08.904Z,26.56
2023-03-02T09:36:09.903Z,26.63
2023-03-02T09:37:08.924Z,26.37
2023-03-02T09:38:09.960Z,25.87
2023-03-02T09:39:08.942Z,25.78
2023-03-02T09:40:09.976Z,25.65
2023-03-02T09:41:09.998Z,25.68
2023-03-02T09:42:10.130Z,25.33
2023-03-02T09:43:10.071Z,25.72
2023-03-02T09:44:10.126Z,25.55
2023-03-02T09:45:10.171Z,25.40
2023-03-02T09:46:10.365Z,25.65
2023-03-02T09:47:10.294Z,25.91
2023-03-02T09:48:10.256Z,25.84
2023-03-02T09:49:10.269Z,25.78
2023-03-02T09:50:09.296Z,25.82
2023-03-02T09:51:10.295Z,26.17
2023-03-02T09:52:10.315Z,26.13
2023-03-02T09:53:10.289Z,26.55
2023-03-02T09:54:10.360Z,26.88
2023-03-02T09:55:09.300Z,26.72
2023-03-02T09:56:09.307Z,27.18
2023-03-02T09:57:10.665Z,27.18
2023-03-02T09:58:10.384Z,27.60
2023-03-02T09:59:10.438Z,27.42
2023-03-02T10:00:19.253Z,27.49
2023-03-02T10:01:10.501Z,27.51
2023-03-02T10:02:10.485Z,28.02
2023-03-02T10:03:17.158Z,28.26
2023-03-02T10:04:10.602Z,28.19
2023-03-02T10:05:10.464Z,28.12
2023-03-02T10:06:10.445Z,28.41
2023-03-02T10:07:10.475Z,28.34
2023-03-02T10:08:10.450Z,28.03
2023-03-02T10:09:10.432Z,28.16
2023-03-02T10:10:10.447Z,28.53
2023-03-02T10:11:09.416Z,28.76
2023-03-02T10:12:10.439Z,28.86
2023-03-02T10:13:10.425Z,29.21
2023-03-02T10:14:10.387Z,29.12
2023-03-02T10:15:10.413Z,29.12
2023-03-02T10:16:10.419Z,28.99
2023-03-02T10:17:10.359Z,28.91
2023-03-02T10:18:10.379Z,29.03
2023-03-02T10:19:10.391Z,28.84
2023-03-02T10:20:10.345Z,29.15
2023-03-02T10:21:10.370Z,29.29
2023-03-02T10:22:09.368Z,29.22
2023-03-02T10:23:10.377Z,28.89
2023-03-02T10:24:09.317Z,28.84
2023-03-02T10:25:10.331Z,29.13
2023-03-02T10:26:10.302Z,29.10
2023-03-02T10:27:10.348Z,29.66
2023-03-02T10:28:10.289Z,29.39
2023-03-02T10:29:09.262Z,29.36
2023-03-02T10:30:10.271Z,29.51
2023-03-02T10:31:10.392Z,29.66
2023-03-02T10:32:09.380Z,29.76
2023-03-02T10:33:09.368Z,29.08
2023-03-02T10:34:10.433Z,29.12
2023-03-02T10:35:09.505Z,29.15
2023-03-02T10:36:10.481Z,28.95
2023-03-02T10:37:10.511Z,28.79
2023-03-02T10:38:10.544Z,28.99
2023-03-02T10:39:10.606Z,28.66
2023-03-02T10:40:10.637Z,28.63
2023-03-02T10:41:10.676Z,27.97
2023-03-02T10:42:10.817Z,27.84
2023-03-02T10:43:10.800Z,27.45
2023-03-02T10:44:10.853Z,27.57
2023-03-02T10:45:09.910Z,27.61
2023-03-02T10:46:11.028Z,27.39
2023-03-02T10:47:11.000Z,27.18
2023-03-02T10:48:11.027Z,26.82
2023-03-02T10:49:11.060Z,26.98
2023-03-02T10:50:11.201Z,26.94
2023-03-02T10:51:11.091Z,26.90
2023-03-02T10:52:11.159Z,26.79
2023-03-02T10:53:11.645Z,26.72
2023-03-02T10:54:11.271Z,26.48
2023-03-02T10:55:11.316Z,26.43
2023-03-02T10:56:11.371Z,26.40
2023-03-02T10:57:11.425Z,26.17
2023-03-02T10:58:11.475Z,26.42
2023-03-02T10:59:11.517Z,26.25
2023-03-02T11:00:11.578Z,26.25
2023-03-02T11:01:11.636Z,26.21
2023-03-02T11:02:11.685Z,26.10
2023-03-02T11:03:11.748Z,26.18
2023-03-02T11:04:11.827Z,25.96
2023-03-02T11:05:11.798Z,25.90
2023-03-02T11:06:11.970Z,25.86
2023-03-02T11:07:10.885Z,25.95
2023-03-02T11:08:11.921Z,25.85
2023-03-02T11:09:11.979Z,25.76
2023-03-02T11:10:12.030Z,25.71
2023-03-02T11:11:12.057Z,25.76
2023-03-02T11:12:12.184Z,25.71
2023-03-02T11:13:12.150Z,25.71
2023-03-02T11:14:12.219Z,25.65
2023-03-02T11:15:12.256Z,25.53
2023-03-02T11:16:11.334Z,25.63
2023-03-02T11:17:12.355Z,25.60
2023-03-02T11:18:12.410Z,25.68
2023-03-02T11:19:11.452Z,25.44
2023-03-02T11:20:12.504Z,25.50
2023-03-02T11:21:11.538Z,25.60
2023-03-02T11:22:12.615Z,25.56
2023-03-02T11:23:12.655Z,25.47
2023-03-02T11:24:12.710Z,25.41
2023-03-02T11:25:12.764Z,25.43
2023-03-02T11:26:12.803Z,25.46
2023-03-02T11:27:12.831Z,25.46
2023-03-02T11:28:12.889Z,25.43
2023-03-02T11:29:12.960Z,25.33
2023-03-02T11:30:12.017Z,25.45
2023-03-02T11:31:12.137Z,25.47
2023-03-02T11:32:12.167Z,25.42
2023-03-02T11:33:13.260Z,25.47
2023-03-02T11:34:18.049Z,25.42
2023-03-02T11:35:13.219Z,25.45
2023-03-02T11:36:13.208Z,25.58
2023-03-02T11:37:13.189Z,25.63
2023-03-02T11:38:13.209Z,25.63
2023-03-02T11:39:13.184Z,25.71
2023-03-02T11:40:13.163Z,25.68
2023-03-02T11:41:13.159Z,25.65
2023-03-02T11:42:13.202Z,25.66
2023-03-02T11:43:13.182Z,25.69
2023-03-02T11:44:13.162Z,25.69
2023-03-02T11:45:13.130Z,25.70
2023-03-02T11:46:21.459Z,25.78
2023-03-02T11:47:13.160Z,25.70
2023-03-02T11:48:13.172Z,25.63
2023-03-02T11:49:12.105Z,25.66
2023-03-02T11:50:12.083Z,25.60
2023-03-02T11:51:13.110Z,25.71
2023-03-02T11:52:12.063Z,25.90
2023-03-02T11:53:12.277Z,25.85
2023-03-02T11:54:12.096Z,26.03
2023-03-02T11:55:13.051Z,25.92
2023-03-02T11:56:13.081Z,25.93
2023-03-02T11:57:13.077Z,25.90
2023-03-02T11:58:13.021Z,25.94
2023-03-02T11:59:13.009Z,25.94
2023-03-02T12:00:13.005Z,25.96
2023-03-02T12:01:12.004Z,25.93
2023-03-02T12:02:13.111Z,25.92
2023-03-02T12:03:12.998Z,26.00
2023-03-02T12:04:12.983Z,26.00
2023-03-02T12:05:12.022Z,25.93
2023-03-02T12:06:12.960Z,25.98
2023-03-02T12:07:12.955Z,26.03
2023-03-02T12:08:12.949Z,26.01
2023-03-02T12:09:13.070Z,26.05
2023-03-02T12:10:11.989Z,26.07
2023-03-02T12:11:12.953Z,26.22
2023-03-02T12:12:12.926Z,26.06
2023-03-02T12:13:12.935Z,26.16
2023-03-02T12:14:12.910Z,26.32
2023-03-02T12:15:12.917Z,26.21
2023-03-02T12:16:12.983Z,26.15
2023-03-02T12:17:12.902Z,26.24
2023-03-02T12:18:12.900Z,26.24
2023-03-02T12:19:12.872Z,26.31
2023-03-02T12:20:11.881Z,26.50
2023-03-02T12:21:12.875Z,26.49
2023-03-02T12:22:12.855Z,26.40
2023-03-02T12:23:12.908Z,26.43
2023-03-02T12:24:12.846Z,26.39
2023-03-02T12:25:12.836Z,26.44
2023-03-02T12:26:12.856Z,26.43
2023-03-02T12:27:11.816Z,26.42
2023-03-02T12:28:12.908Z,26.48
2023-03-02T12:29:11.795Z,26.51
2023-03-02T12:30:12.853Z,26.72
2023-03-02T12:31:12.893Z,26.64
2023-03-02T12:32:12.897Z,26.73
2023-03-02T12:33:12.783Z,26.76
2023-03-02T12:34:12.837Z,26.72
2023-03-02T12:35:12.785Z,26.81
2023-03-02T12:36:12.749Z,26.73
2023-03-02T12:37:11.736Z,26.84
2023-03-02T12:38:13.303Z,26.82
2023-03-02T12:39:11.721Z,26.84
2023-03-02T12:40:12.716Z,26.80
2023-03-02T12:41:12.756Z,26.88
2023-03-02T12:42:12.767Z,27.02
2023-03-02T12:43:11.891Z,27.05
2023-03-02T12:44:12.765Z,27.08
2023-03-02T12:45:12.733Z,27.12
2023-03-02T12:46:11.727Z,27.21
2023-03-02T12:47:11.842Z,27.30
2023-03-02T12:48:11.725Z,27.27
2023-03-02T12:49:13.329Z,27.26
2023-03-02T12:50:11.677Z,27.29
2023-03-02T12:51:12.705Z,27.33
2023-03-02T12:52:12.791Z,27.41
2023-03-02T12:53:12.651Z,27.41
2023-03-02T12:54:12.643Z,27.41
2023-03-02T12:55:11.643Z,27.41
2023-03-02T12:56:11.669Z,27.36
2023-03-02T12:57:12.628Z,27.45
2023-03-02T12:58:12.639Z,27.50
2023-03-02T12:59:11.615Z,27.56
2023-03-02T13:00:12.604Z,27.49
2023-03-02T13:01:12.661Z,27.50
2023-03-02T13:02:12.642Z,27.48
2023-03-02T13:03:12.654Z,27.50
2023-03-02T13:04:12.670Z,27.60
2023-03-02T13:05:12.581Z,27.63
2023-03-02T13:06:12.591Z,27.63
2023-03-02T13:07:12.576Z,27.64
2023-03-02T13:08:12.581Z,27.64
2023-03-02T13:09:12.590Z,27.71
2023-03-02T13:10:12.621Z,27.64
2023-03-02T13:11:11.604Z,27.59
2023-03-02T13:12:12.592Z,27.60
2023-03-02T13:13:12.643Z,27.57
2023-03-02T13:14:11.613Z,27.57
2023-03-02T13:15:12.584Z,27.61
2023-03-02T13:16:12.590Z,27.67
2023-03-02T13:17:12.573Z,27.58
2023-03-02T13:18:12.251Z,27.50
2023-03-02T13:19:12.585Z,27.59
2023-03-02T13:20:12.584Z,27.59
2023-03-02T13:21:12.558Z,27.57
2023-03-02T13:22:12.601Z,27.45
2023-03-02T13:23:11.577Z,27.50
2023-03-02T13:24:12.435Z,27.48
2023-03-02T13:25:12.556Z,27.45
2023-03-02T13:26:12.555Z,27.42
2023-03-02T13:27:11.565Z,27.62
2023-03-02T13:28:12.553Z,27.63
2023-03-02T13:29:12.546Z,27.57
2023-03-02T13:30:12.592Z,27.54
2023-03-02T13:31:12.652Z,27.89
2023-03-02T13:32:12.579Z,28.10
2023-03-02T13:33:12.547Z,28.13
2023-03-02T13:34:12.549Z,28.60
2023-03-02T13:35:12.530Z,28.61
2023-03-02T13:36:12.537Z,28.36
2023-03-02T13:37:12.525Z,28.45
2023-03-02T13:38:11.544Z,28.40
2023-03-02T13:39:12.545Z,28.48
2023-03-02T13:40:12.532Z,28.35
2023-03-02T13:41:11.536Z,28.37
2023-03-02T13:42:12.531Z,28.35
2023-03-02T13:43:12.537Z,28.20
2023-03-02T13:44:12.595Z,28.07
2023-03-02T13:45:12.796Z,27.98
2023-03-02T13:46:11.661Z,28.16
2023-03-02T13:47:11.555Z,27.92
2023-03-02T13:48:12.545Z,27.98
2023-03-02T13:49:12.537Z,28.03
2023-03-02T13:50:12.610Z,27.86
2023-03-02T13:51:11.537Z,27.77
2023-03-02T13:52:12.534Z,27.75
2023-03-02T13:53:12.537Z,27.70
2023-03-02T13:54:12.530Z,27.84
2023-03-02T13:55:12.519Z,27.78
2023-03-02T13:56:12.511Z,27.78
2023-03-02T13:57:12.523Z,27.55
2023-03-02T13:58:11.523Z,27.66
2023-03-02T13:59:12.531Z,27.56
2023-03-02T14:00:12.531Z,27.59
2023-03-02T14:01:12.537Z,27.48
2023-03-02T14:02:12.531Z,27.47
2023-03-02T14:03:12.498Z,27.41
2023-03-02T14:04:12.641Z,27.45
2023-03-02T14:05:12.640Z,27.28
2023-03-02T14:06:12.513Z,27.32
2023-03-02T14:07:12.508Z,27.22
2023-03-02T14:08:12.501Z,27.20
2023-03-02T14:09:12.501Z,26.98
2023-03-02T14:10:12.502Z,26.94
2023-03-02T14:11:11.530Z,26.98
2023-03-02T14:12:12.519Z,26.96
2023-03-02T14:13:12.508Z,26.93
2023-03-02T14:14:12.522Z,26.96
2023-03-02T14:15:12.555Z,26.84
2023-03-02T14:16:12.585Z,26.82
2023-03-02T14:17:12.499Z,26.76
2023-03-02T14:18:12.547Z,26.78
2023-03-02T14:19:12.535Z,26.68
2023-03-02T14:20:11.539Z,26.70
2023-03-02T14:21:11.628Z,26.71
2023-03-02T14:22:12.540Z,26.61
2023-03-02T14:23:12.645Z,26.55
2023-03-02T14:24:12.541Z,26.46
2023-03-02T14:25:12.547Z,26.44
2023-03-02T14:26:11.551Z,26.35
2023-03-02T14:27:12.526Z,26.33
2023-03-02T14:28:12.514Z,26.35
2023-03-02T14:29:12.526Z,26.26
2023-03-02T14:30:12.550Z,26.26
2023-03-02T14:31:12.741Z,26.20
2023-03-02T14:32:12.594Z,26.12
2023-03-02T14:33:12.548Z,25.94
2023-03-02T14:34:12.607Z,25.92
2023-03-02T14:35:12.564Z,26.02
2023-03-02T14:36:12.555Z,26.03
2023-03-02T14:37:12.553Z,25.89
2023-03-02T14:38:12.530Z,26.00
2023-03-02T14:39:12.540Z,25.89
2023-03-02T14:40:11.531Z,25.91
2023-03-02T14:41:12.525Z,25.88
2023-03-02T14:42:12.522Z,25.89
2023-03-02T14:43:12.522Z,25.85
2023-03-02T14:44:12.529Z,25.80
2023-03-02T14:45:12.531Z,25.88
2023-03-02T14:46:11.585Z,25.83
2023-03-02T14:47:12.531Z,25.80
2023-03-02T14:48:11.544Z,25.71
2023-03-02T14:49:12.569Z,25.73
2023-03-02T14:50:12.648Z,25.73
2023-03-02T14:51:12.626Z,25.67
2023-03-02T14:52:12.578Z,25.68
2023-03-02T14:53:12.607Z,25.67
2023-03-02T14:54:12.609Z,25.71
2023-03-02T14:55:11.657Z,25.65
2023-03-02T14:56:12.616Z,25.63
2023-03-02T14:57:12.621Z,25.68
2023-03-02T14:58:12.603Z,25.55
2023-03-02T14:59:11.618Z,25.60
2023-03-02T15:00:12.691Z,25.61
2023-03-02T15:01:11.662Z,25.49
2023-03-02T15:02:24.449Z,25.52
2023-03-02T15:03:12.743Z,25.63
2023-03-02T15:04:12.666Z,25.49
2023-03-02T15:05:12.645Z,25.52
2023-03-02T15:06:12.656Z,25.53
2023-03-02T15:07:12.631Z,25.55
2023-03-02T15:08:12.614Z,25.58
2023-03-02T15:09:12.622Z,25.55
2023-03-02T15:10:12.605Z,25.60
2023-03-02T15:11:12.601Z,25.55
2023-03-02T15:12:12.602Z,25.49
2023-03-02T15:13:12.583Z,25.58
2023-03-02T15:14:12.594Z,25.52
2023-03-02T15:15:12.623Z,25.49
2023-03-02T15:16:12.648Z,25.53
2023-03-02T15:17:12.547Z,25.53
2023-03-02T15:18:11.541Z,25.50
2023-03-02T15:19:12.557Z,25.49
2023-03-02T15:20:11.585Z,25.47
2023-03-02T15:21:12.524Z,25.43
2023-03-02T15:22:12.557Z,25.42
2023-03-02T15:23:12.509Z,25.49
2023-03-02T15:24:12.517Z,25.56
2023-03-02T15:25:12.497Z,25.53
2023-03-02T15:26:11.508Z,25.49
2023-03-02T15:27:12.519Z,25.49
2023-03-02T15:28:12.477Z,25.58
2023-03-02T15:29:11.479Z,25.57
2023-03-02T15:30:12.503Z,25.57
2023-03-02T15:31:12.485Z,25.61
2023-03-02T15:32:12.553Z,25.61
2023-03-02T15:33:12.442Z,25.63
2023-03-02T15:34:11.439Z,25.67
2023-03-02T15:35:12.541Z,25.65
2023-03-02T15:36:12.494Z,25.65
2023-03-02T15:37:12.411Z,25.74
2023-03-02T15:38:12.425Z,25.71
2023-03-02T15:39:11.393Z,25.68
2023-03-02T15:40:12.386Z,25.75
2023-03-02T15:41:11.393Z,25.78
2023-03-02T15:42:13.917Z,25.78
2023-03-02T15:43:12.535Z,25.88
2023-03-02T15:44:12.547Z,25.86
2023-03-02T15:45:12.559Z,25.90
2023-03-02T15:46:11.559Z,25.91
2023-03-02T15:47:12.598Z,25.94
2023-03-02T15:48:13.575Z,25.99
2023-03-02T15:49:12.598Z,26.01
2023-03-02T15:50:11.584Z,26.01
2023-03-02T15:51:12.608Z,26.06
2023-03-02T15:52:12.610Z,26.09
2023-03-02T15:53:12.632Z,26.12
2023-03-02T15:54:11.680Z,26.15
2023-03-02T15:55:12.671Z,26.22
2023-03-02T15:56:12.693Z,26.22
2023-03-02T15:57:12.707Z,26.26
2023-03-02T15:58:12.720Z,26.21
2023-03-02T15:59:12.738Z,26.31
2023-03-02T16:00:12.765Z,26.25
2023-03-02T16:01:12.823Z,26.30
2023-03-02T16:02:12.820Z,26.31
2023-03-02T16:03:12.893Z,26.31
2023-03-02T16:04:12.857Z,26.46
2023-03-02T16:05:11.885Z,26.38
2023-03-02T16:06:12.931Z,26.47
2023-03-02T16:07:11.949Z,26.46
2023-03-02T16:08:12.985Z,26.47
2023-03-02T16:09:12.051Z,26.56
2023-03-02T16:10:12.074Z,26.59
2023-03-02T16:11:12.141Z,26.57
2023-03-02T16:12:12.118Z,26.67
2023-03-02T16:13:13.181Z,26.57
2023-03-02T16:14:13.196Z,26.57
2023-03-02T16:15:13.241Z,26.72
2023-03-02T16:16:13.330Z,26.60
2023-03-02T16:17:13.303Z,26.58
2023-03-02T16:18:13.346Z,26.73
2023-03-02T16:19:13.392Z,26.67
2023-03-02T16:20:13.431Z,26.63
2023-03-02T16:21:14.275Z,26.66
2023-03-02T16:22:13.513Z,26.73
2023-03-02T16:23:12.576Z,26.68
2023-03-02T16:28:12.847Z,26.78
